Time;durP1;ratioP1;P1;durP2;ratioP2;P2;SDS_P1;SDS_P2;PMS_P1;PMS_P2;Temp;Humidity;BMP_temperature;BMP_pressure;BME280_temperature;BME280_humidity;BME280_pressure;Samples;Min_cycle;Max_cycle;Signal;HPM_P1;HPM_P2
2022/05/09 00:02:12;;;;;;;7.82;3.15;;;9.00;99.80;;;;;;5076361;28;20494;-45
2022/05/09 00:04:37;;;;;;;7.10;3.40;;;9.00;99.90;;;;;;5087454;28;20024;-46
2022/05/09 00:07:07;;;;;;;7.07;3.28;;;9.00;99.90;;;;;;5075479;28;20051;-45
2022/05/09 00:09:33;;;;;;;7.82;3.15;;;9.00;99.90;;;;;;5087342;28;20031;-46
2022/05/09 00:11:59;;;;;;;10.32;3.28;;;9.00;99.40;;;;;;5074282;28;20021;-45
2022/05/09 00:14:24;;;;;;;11.07;3.60;;;9.00;99.10;;;;;;5090132;28;20123;-45
2022/05/09 00:16:51;;;;;;;8.77;3.15;;;9.10;99.00;;;;;;5074416;28;20043;-46
2022/05/09 00:19:20;;;;;;;9.63;3.33;;;9.10;99.50;;;;;;5083218;28;20046;-46
2022/05/09 00:21:47;;;;;;;8.90;3.17;;;9.00;99.90;;;;;;5075042;28;20446;-46
2022/05/09 00:24:14;;;;;;;5.55;3.20;;;9.00;99.90;;;;;;5083308;28;20020;-46
2022/05/09 00:26:41;;;;;;;4.97;2.72;;;8.90;99.90;;;;;;5076685;28;20096;-45
2022/05/09 00:29:09;;;;;;;6.40;3.00;;;8.80;99.90;;;;;;5082754;28;20028;-47
2022/05/09 00:31:35;;;;;;;9.00;3.47;;;8.80;99.90;;;;;;5078839;28;20016;-45
2022/05/09 00:34:01;;;;;;;9.73;3.17;;;8.80;99.90;;;;;;5082637;28;20042;-47
2022/05/09 00:36:26;;;;;;;10.65;3.33;;;8.80;99.90;;;;;;5090169;28;20024;-45
2022/05/09 00:38:52;;;;;;;8.48;2.92;;;8.70;99.90;;;;;;5072033;28;20533;-46
2022/05/09 00:41:40;;;;;;;12.18;3.65;;;8.60;99.90;;;;;;5088898;28;20558;-46
2022/05/09 00:44:22;;;;;;;4.50;3.08;;;8.70;99.90;;;;;;5075458;28;20078;-46
2022/05/09 00:46:51;;;;;;;10.15;3.42;;;8.60;99.90;;;;;;5049567;28;20056;-46
2022/05/09 00:49:28;;;;;;;6.07;3.70;;;8.70;99.90;;;;;;5076084;28;20481;-45
2022/05/09 00:51:57;;;;;;;8.18;3.17;;;8.60;99.90;;;;;;5091007;28;20107;-48
2022/05/09 00:54:25;;;;;;;5.20;2.78;;;8.70;99.90;;;;;;5081911;28;20024;-45
2022/05/09 00:57:00;;;;;;;8.07;3.58;;;8.70;99.90;;;;;;5084787;28;20028;-45
2022/05/09 00:59:32;;;;;;;11.82;3.25;;;8.60;99.90;;;;;;5076834;28;20470;-45
2022/05/09 01:01:57;;;;;;;8.20;3.28;;;8.50;99.90;;;;;;5083466;28;20171;-46
2022/05/09 01:04:26;;;;;;;7.80;3.08;;;8.40;99.90;;;;;;5065742;28;20027;-44
2022/05/09 01:06:53;;;;;;;7.50;3.67;;;8.50;99.90;;;;;;5082152;28;20046;-47
2022/05/09 01:09:18;;;;;;;11.35;3.47;;;8.40;99.90;;;;;;5083749;28;20013;-46
2022/05/09 01:11:46;;;;;;;10.07;3.63;;;8.30;99.90;;;;;;5077084;28;20052;-45
2022/05/09 01:14:22;;;;;;;7.35;4.05;;;8.30;99.90;;;;;;5069343;28;20021;-45
2022/05/09 01:16:49;;;;;;;9.15;3.53;;;8.30;99.90;;;;;;5070500;28;20051;-45
2022/05/09 01:19:35;;;;;;;5.13;2.88;;;8.30;99.90;;;;;;5082101;28;20127;-45
2022/05/09 01:22:02;;;;;;;10.30;3.60;;;8.30;99.90;;;;;;5083567;28;20423;-45
2022/05/09 01:24:28;;;;;;;6.25;2.85;;;8.20;99.90;;;;;;5081888;28;20268;-45
2022/05/09 01:26:55;;;;;;;10.35;3.30;;;8.20;99.90;;;;;;5084561;28;20023;-46
2022/05/09 01:29:54;;;;;;;9.18;2.83;;;8.10;99.90;;;;;;5077809;28;20016;-46
2022/05/09 01:32:45;;;;;;;7.50;3.10;;;8.10;99.90;;;;;;5089104;28;20421;-46
2022/05/09 01:35:15;;;;;;;7.30;3.20;;;8.10;99.90;;;;;;5065137;28;20035;-47
2022/05/09 01:37:42;;;;;;;8.60;2.97;;;8.10;99.90;;;;;;5069743;28;20167;-45
2022/05/09 01:40:08;;;;;;;9.20;4.40;;;8.10;99.90;;;;;;5054152;28;20032;-44
2022/05/09 01:42:35;;;;;;;5.70;3.40;;;8.10;99.90;;;;;;5077343;28;20021;-45
2022/05/09 01:45:01;;;;;;;10.85;3.63;;;8.10;99.90;;;;;;5070690;28;20461;-45
2022/05/09 01:50:11;;;;;;;7.95;2.90;;;8.10;99.90;;;;;;5084902;28;20070;-45
2022/05/09 01:52:36;;;;;;;7.55;3.08;;;8.00;99.90;;;;;;5079865;28;20024;-45
2022/05/09 01:55:03;;;;;;;8.55;2.97;;;8.00;99.90;;;;;;5089950;28;20020;-45
2022/05/09 01:57:28;;;;;;;5.85;2.92;;;8.00;99.90;;;;;;5072546;28;20045;-44
2022/05/09 01:59:54;;;;;;;6.40;2.88;;;7.90;99.90;;;;;;5075185;28;20119;-44
2022/05/09 02:02:21;;;;;;;5.70;2.88;;;7.90;99.90;;;;;;5061596;28;20017;-45
2022/05/09 02:04:47;;;;;;;5.30;3.05;;;7.90;99.90;;;;;;5081489;28;20545;-46
2022/05/09 02:07:15;;;;;;;5.75;3.05;;;7.80;99.90;;;;;;5076428;28;20104;-48
2022/05/09 02:09:43;;;;;;;5.50;2.97;;;7.70;99.90;;;;;;5080948;28;20017;-46
2022/05/09 02:12:10;;;;;;;4.35;3.00;;;7.70;99.90;;;;;;5065995;28;20287;-45
2022/05/09 02:14:37;;;;;;;10.82;2.90;;;7.70;99.90;;;;;;5068842;28;20127;-45
2022/05/09 02:17:04;;;;;;;10.02;3.05;;;7.60;99.90;;;;;;5067241;28;20025;-45
2022/05/09 02:19:30;;;;;;;6.35;3.10;;;7.60;99.90;;;;;;5078810;28;20064;-45
2022/05/09 02:21:55;;;;;;;8.10;3.50;;;7.50;99.90;;;;;;5068407;28;20060;-45
2022/05/09 02:24:22;;;;;;;7.78;3.42;;;7.40;99.90;;;;;;5069923;28;20378;-44
2022/05/09 02:26:48;;;;;;;7.03;3.03;;;7.50;99.90;;;;;;5082755;28;20016;-45
2022/05/09 02:29:13;;;;;;;10.32;3.40;;;7.50;99.90;;;;;;5075331;28;20201;-45
2022/05/09 02:31:39;;;;;;;10.18;3.40;;;7.40;99.90;;;;;;5074102;28;20138;-48
2022/05/09 02:34:04;;;;;;;5.75;2.70;;;7.40;99.90;;;;;;5054316;28;20024;-45
2022/05/09 02:36:30;;;;;;;7.90;3.40;;;7.30;99.90;;;;;;5077226;28;20502;-45
2022/05/09 02:38:55;;;;;;;8.75;3.33;;;7.30;99.90;;;;;;5068902;28;20034;-45
2022/05/09 02:41:22;;;;;;;7.13;4.18;;;7.30;99.90;;;;;;5080625;28;20020;-45
2022/05/09 02:43:48;;;;;;;11.35;3.28;;;7.40;99.90;;;;;;5076339;28;20477;-46
2022/05/09 02:46:13;;;;;;;8.73;3.63;;;7.30;99.90;;;;;;5076764;28;20077;-45
2022/05/09 02:48:40;;;;;;;6.88;3.08;;;7.40;99.90;;;;;;5077094;28;20012;-45
2022/05/09 02:51:08;;;;;;;8.00;3.53;;;7.40;99.90;;;;;;5078859;28;20169;-44
2022/05/09 02:53:34;;;;;;;9.98;3.38;;;7.30;99.90;;;;;;5072957;28;20406;-45
2022/05/09 02:55:59;;;;;;;17.17;3.08;;;7.30;99.90;;;;;;5077280;28;20087;-45
2022/05/09 02:58:25;;;;;;;5.68;2.88;;;7.20;99.90;;;;;;5068751;28;20025;-46
2022/05/09 03:00:51;;;;;;;6.45;3.20;;;7.20;99.90;;;;;;5080410;28;20035;-45
2022/05/09 03:06:01;;;;;;;9.85;3.40;;;7.10;99.90;;;;;;5072298;28;20059;-45
2022/05/09 03:08:27;;;;;;;7.80;3.15;;;7.00;99.90;;;;;;5085671;28;20082;-45
2022/05/09 03:10:52;;;;;;;7.13;3.53;;;6.90;99.90;;;;;;5070891;28;20036;-45
2022/05/09 03:13:18;;;;;;;7.22;3.25;;;6.90;99.90;;;;;;5085624;28;20028;-45
2022/05/09 03:15:46;;;;;;;10.70;3.08;;;6.90;99.90;;;;;;5073352;28;20493;-45
2022/05/09 03:18:14;;;;;;;7.65;3.83;;;6.90;99.90;;;;;;5085281;28;20024;-45
2022/05/09 03:20:40;;;;;;;11.77;4.25;;;6.90;99.90;;;;;;5077946;28;20051;-44
2022/05/09 03:23:07;;;;;;;7.78;3.75;;;6.80;99.90;;;;;;5083789;28;20528;-44
2022/05/09 03:25:33;;;;;;;8.13;3.63;;;6.80;99.90;;;;;;5071381;28;20480;-44
2022/05/09 03:27:59;;;;;;;12.48;4.80;;;6.90;99.90;;;;;;5078555;28;20016;-44
2022/05/09 03:30:26;;;;;;;9.27;3.40;;;6.80;99.90;;;;;;5083080;28;20131;-44
2022/05/09 03:32:53;;;;;;;8.75;3.80;;;6.80;99.90;;;;;;5079476;28;20408;-46
2022/05/09 03:35:19;;;;;;;10.55;4.13;;;6.80;99.90;;;;;;5083959;28;20040;-45
2022/05/09 03:37:44;;;;;;;10.02;3.28;;;6.80;99.90;;;;;;5079860;28;20203;-46
2022/05/09 03:40:11;;;;;;;8.20;4.68;;;6.80;99.90;;;;;;5086379;28;20033;-45
2022/05/09 03:42:36;;;;;;;7.35;4.03;;;6.80;99.90;;;;;;5079682;28;20604;-45
2022/05/09 03:45:03;;;;;;;8.57;3.50;;;6.80;99.90;;;;;;5089000;28;20099;-45
2022/05/09 03:47:28;;;;;;;8.05;3.95;;;6.90;99.90;;;;;;5069932;28;20028;-45
2022/05/09 03:49:57;;;;;;;6.05;3.90;;;6.80;99.90;;;;;;5082962;28;20046;-45
2022/05/09 03:52:22;;;;;;;8.00;3.92;;;6.90;99.90;;;;;;5064581;28;20059;-46
2022/05/09 03:54:48;;;;;;;7.00;3.67;;;6.80;99.90;;;;;;5066101;28;20048;-45
2022/05/09 03:57:13;;;;;;;5.72;4.15;;;6.80;99.90;;;;;;5075256;28;20028;-45
2022/05/09 03:59:39;;;;;;;10.93;4.43;;;6.80;99.90;;;;;;5078106;28;20035;-46
2022/05/09 04:02:05;;;;;;;10.60;3.70;;;6.80;99.90;;;;;;5074091;28;20507;-45
2022/05/09 04:04:31;;;;;;;7.22;3.67;;;6.90;99.90;;;;;;5083217;28;20042;-44
2022/05/09 04:06:56;;;;;;;9.63;3.40;;;6.90;99.90;;;;;;5086128;28;20692;-45
2022/05/09 04:09:22;;;;;;;9.98;4.15;;;6.90;99.90;;;;;;5076812;28;20016;-45
2022/05/09 04:11:48;;;;;;;11.00;3.85;;;6.90;99.90;;;;;;5070285;28;20020;-47
2022/05/09 04:14:15;;;;;;;10.27;3.63;;;6.90;99.90;;;;;;5077391;28;20461;-46
2022/05/09 04:16:49;;;;;;;9.95;4.40;;;6.90;99.90;;;;;;5091446;28;20163;-45
2022/05/09 04:19:20;;;;;;;6.95;3.92;;;6.90;99.90;;;;;;5079484;28;20055;-46
2022/05/09 04:21:46;;;;;;;10.05;3.42;;;6.90;99.90;;;;;;5090789;28;20443;-45
2022/05/09 04:24:12;;;;;;;11.90;4.30;;;6.90;99.90;;;;;;5074041;28;20103;-46
2022/05/09 04:26:37;;;;;;;7.65;4.05;;;6.90;99.90;;;;;;5083332;28;20024;-45
2022/05/09 04:29:03;;;;;;;8.23;3.83;;;6.90;99.90;;;;;;5075913;28;20081;-45
2022/05/09 04:31:29;;;;;;;7.60;3.65;;;7.00;99.90;;;;;;5082436;28;20073;-45
2022/05/09 04:33:55;;;;;;;10.82;5.00;;;6.90;99.90;;;;;;5070536;28;20032;-44
2022/05/09 04:36:22;;;;;;;8.10;4.05;;;6.90;99.90;;;;;;5077352;28;20028;-46
2022/05/09 04:38:50;;;;;;;9.10;4.00;;;6.90;99.90;;;;;;5072122;28;20021;-45
2022/05/09 04:41:18;;;;;;;8.85;4.03;;;6.90;99.90;;;;;;5080854;28;20035;-46
2022/05/09 04:43:44;;;;;;;10.63;4.18;;;7.00;99.90;;;;;;5079817;28;20113;-45
2022/05/09 04:46:10;;;;;;;12.80;4.25;;;7.10;99.90;;;;;;5077116;28;20092;-45
2022/05/09 04:48:35;;;;;;;10.52;3.67;;;7.10;99.90;;;;;;5092918;28;20029;-45
2022/05/09 04:51:01;;;;;;;11.77;3.97;;;7.20;99.90;;;;;;5076565;28;20025;-45
2022/05/09 04:53:27;;;;;;;9.98;3.80;;;7.20;99.90;;;;;;5090953;28;20051;-45
2022/05/09 04:55:56;;;;;;;14.45;4.22;;;7.30;99.90;;;;;;5079774;28;20112;-47
2022/05/09 04:58:22;;;;;;;11.52;4.20;;;7.30;99.90;;;;;;5089580;28;20099;-45
2022/05/09 05:00:48;;;;;;;8.98;4.28;;;7.40;99.90;;;;;;5090376;28;20202;-45
2022/05/09 05:03:13;;;;;;;12.93;4.55;;;7.40;99.90;;;;;;5091817;28;20074;-46
2022/05/09 05:05:40;;;;;;;13.80;4.53;;;7.40;99.90;;;;;;5081487;28;20377;-45
2022/05/09 05:08:06;;;;;;;11.70;3.90;;;7.50;99.90;;;;;;5082762;28;20050;-45
2022/05/09 05:10:32;;;;;;;16.35;4.93;;;7.50;99.90;;;;;;5081592;28;20034;-37
2022/05/09 05:12:59;;;;;;;14.00;4.10;;;7.60;99.90;;;;;;5074209;28;20458;-37
2022/05/09 05:15:26;;;;;;;13.90;5.00;;;7.60;99.90;;;;;;5065816;28;20029;-37
2022/05/09 05:17:51;;;;;;;7.47;4.38;;;7.60;99.90;;;;;;5071881;28;20037;-37
2022/05/09 05:20:17;;;;;;;7.38;4.07;;;7.60;99.90;;;;;;5068186;28;20021;-37
2022/05/09 05:22:47;;;;;;;12.45;4.13;;;7.70;99.90;;;;;;5065564;28;20055;-37
2022/05/09 05:25:15;;;;;;;12.68;4.50;;;7.80;99.90;;;;;;5071702;28;20512;-37
2022/05/09 05:27:40;;;;;;;15.85;5.07;;;7.90;99.90;;;;;;5082733;28;20491;-42
2022/05/09 05:30:08;;;;;;;15.88;5.32;;;7.90;99.90;;;;;;5067956;28;20035;-37
2022/05/09 05:32:36;;;;;;;13.02;4.70;;;8.00;99.90;;;;;;5074624;28;20074;-37
2022/05/09 05:35:04;;;;;;;11.02;4.30;;;8.00;99.90;;;;;;5063854;28;20024;-37
2022/05/09 05:37:29;;;;;;;14.20;4.72;;;8.10;99.90;;;;;;5081451;28;20035;-37
2022/05/09 05:39:57;;;;;;;12.57;4.47;;;8.10;99.90;;;;;;5080843;28;20031;-37
2022/05/09 05:42:22;;;;;;;12.88;4.75;;;8.20;99.90;;;;;;5074743;28;20029;-37
2022/05/09 05:44:48;;;;;;;10.85;4.78;;;8.20;99.90;;;;;;5083889;28;20497;-37
2022/05/09 05:47:17;;;;;;;8.85;4.28;;;8.30;99.90;;;;;;5074384;28;20031;-37
2022/05/09 05:49:43;;;;;;;15.85;5.07;;;8.30;99.90;;;;;;5069362;28;20035;-37
2022/05/09 05:52:11;;;;;;;18.38;4.85;;;8.40;99.90;;;;;;5070743;28;20028;-37
2022/05/09 05:54:40;;;;;;;12.27;5.13;;;8.50;99.90;;;;;;5076366;28;20027;-45
2022/05/09 05:57:07;;;;;;;12.15;4.65;;;8.50;99.90;;;;;;5065978;28;20028;-47
2022/05/09 05:59:33;;;;;;;11.00;4.28;;;8.60;99.90;;;;;;5071334;28;20024;-44
2022/05/09 06:01:59;;;;;;;14.18;4.53;;;8.70;99.90;;;;;;5065303;28;20028;-44
2022/05/09 06:04:25;;;;;;;14.05;4.80;;;8.80;99.90;;;;;;5079851;28;20027;-51
2022/05/09 06:06:51;;;;;;;8.85;4.22;;;8.80;99.90;;;;;;5073849;28;20028;-44
2022/05/09 06:09:17;;;;;;;12.15;4.40;;;9.00;99.90;;;;;;5073515;28;20449;-45
2022/05/09 06:11:43;;;;;;;10.75;4.22;;;9.00;99.90;;;;;;5077185;28;20736;-37
2022/05/09 06:14:11;;;;;;;12.93;4.30;;;9.10;99.90;;;;;;5082380;28;20401;-37
2022/05/09 06:16:37;;;;;;;10.23;4.30;;;9.10;99.90;;;;;;5079703;28;20509;-42
2022/05/09 06:19:04;;;;;;;12.40;4.60;;;9.20;99.90;;;;;;5069313;28;20088;-37
2022/05/09 06:21:33;;;;;;;11.25;4.10;;;9.30;99.90;;;;;;5070685;28;20016;-37
2022/05/09 06:24:08;;;;;;;16.63;4.82;;;9.40;99.90;;;;;;5077142;28;20024;-37
2022/05/09 06:26:35;;;;;;;10.35;4.75;;;9.50;99.90;;;;;;5071085;28;20029;-37
2022/05/09 06:29:03;;;;;;;17.98;4.68;;;9.60;99.90;;;;;;5071176;28;20536;-37
2022/05/09 06:31:29;;;;;;;12.60;4.70;;;9.70;99.90;;;;;;5068994;28;20047;-37
2022/05/09 06:33:54;;;;;;;15.80;4.40;;;9.80;99.90;;;;;;5076017;28;20469;-37
2022/05/09 06:36:20;;;;;;;7.85;3.90;;;9.80;99.90;;;;;;5072488;28;20028;-37
2022/05/09 06:38:45;;;;;;;20.67;4.93;;;10.00;99.90;;;;;;5071798;28;20454;-37
2022/05/09 06:41:11;;;;;;;9.77;4.13;;;10.10;99.90;;;;;;5076332;28;20039;-37
2022/05/09 06:43:36;;;;;;;14.43;4.10;;;10.20;99.90;;;;;;5072625;28;20028;-37
2022/05/09 06:46:02;;;;;;;10.23;4.25;;;10.30;99.90;;;;;;5085568;28;20048;-37
2022/05/09 06:48:28;;;;;;;17.77;5.30;;;10.40;99.90;;;;;;5076302;28;20024;-37
2022/05/09 06:50:54;;;;;;;10.57;4.88;;;10.50;99.90;;;;;;5084496;28;20583;-37
2022/05/09 06:53:20;;;;;;;13.68;4.35;;;10.60;99.90;;;;;;5076858;28;20125;-37
2022/05/09 06:55:47;;;;;;;13.82;4.15;;;10.70;99.90;;;;;;5074429;28;20029;-37
2022/05/09 06:58:17;;;;;;;12.77;4.10;;;10.90;99.90;;;;;;5058960;28;20398;-37
2022/05/09 07:00:42;;;;;;;14.18;4.75;;;11.00;99.90;;;;;;5078984;28;20426;-37
2022/05/09 07:03:08;;;;;;;7.85;4.47;;;11.20;99.90;;;;;;5081105;28;20111;-37
2022/05/09 07:05:37;;;;;;;10.70;3.88;;;11.30;99.90;;;;;;5081865;28;20018;-37
2022/05/09 07:08:03;;;;;;;16.77;4.78;;;11.50;99.90;;;;;;5067693;28;20120;-37
2022/05/09 07:10:29;;;;;;;10.00;4.10;;;11.60;99.90;;;;;;5075652;28;20654;-47
2022/05/09 07:12:56;;;;;;;16.85;4.00;;;11.80;99.90;;;;;;5078501;28;20040;-48
2022/05/09 07:15:25;;;;;;;10.05;3.80;;;12.00;99.90;;;;;;5076480;28;20107;-45
2022/05/09 07:17:51;;;;;;;12.10;4.10;;;12.10;99.90;;;;;;5079236;28;20107;-45
2022/05/09 07:20:18;;;;;;;21.33;5.35;;;12.20;99.90;;;;;;5072848;28;20024;-48
2022/05/09 07:22:44;;;;;;;12.55;4.45;;;12.30;99.90;;;;;;5079942;28;20607;-45
2022/05/09 07:25:14;;;;;;;17.55;4.53;;;12.40;99.90;;;;;;5080481;28;20070;-47
2022/05/09 07:27:42;;;;;;;10.32;4.00;;;12.60;99.90;;;;;;5080268;28;20398;-46
2022/05/09 07:30:12;;;;;;;11.93;4.13;;;12.70;99.90;;;;;;5082827;28;20024;-45
2022/05/09 07:32:38;;;;;;;17.23;4.82;;;12.90;99.90;;;;;;5056197;28;20023;-47
2022/05/09 07:35:06;;;;;;;15.07;4.68;;;13.10;99.90;;;;;;5082548;28;20039;-47
2022/05/09 07:37:32;;;;;;;14.25;4.30;;;13.30;99.10;;;;;;5082997;28;20063;-46
2022/05/09 07:39:57;;;;;;;13.48;4.80;;;13.50;99.30;;;;;;5074256;28;20055;-45
2022/05/09 07:42:23;;;;;;;17.75;4.70;;;13.60;98.00;;;;;;5083295;28;20036;-45
2022/05/09 07:44:52;;;;;;;15.10;4.28;;;13.70;98.60;;;;;;5081620;28;20028;-47
2022/05/09 07:47:18;;;;;;;11.45;3.97;;;13.90;98.70;;;;;;5075765;28;20024;-47
2022/05/09 07:49:43;;;;;;;13.43;5.30;;;14.10;98.20;;;;;;5077138;28;20049;-48
2022/05/09 07:52:09;;;;;;;13.63;4.72;;;14.30;97.80;;;;;;5070865;28;20020;-45
2022/05/09 07:54:35;;;;;;;7.43;3.85;;;14.50;97.70;;;;;;5081258;28;20036;-45
2022/05/09 07:57:01;;;;;;;15.55;5.00;;;14.70;97.50;;;;;;5081587;28;20029;-45
2022/05/09 07:59:26;;;;;;;17.45;4.43;;;15.10;96.70;;;;;;5075229;28;20044;-46
2022/05/09 08:01:52;;;;;;;16.15;4.43;;;15.30;96.50;;;;;;5056297;28;20106;-47
2022/05/09 08:04:18;;;;;;;18.25;4.85;;;15.60;95.70;;;;;;5071194;28;20027;-46
2022/05/09 08:06:45;;;;;;;13.20;4.18;;;15.90;94.10;;;;;;5069064;28;20107;-45
2022/05/09 08:09:11;;;;;;;15.02;4.72;;;16.10;94.10;;;;;;5065830;28;20040;-47
2022/05/09 08:11:38;;;;;;;10.70;4.25;;;16.50;94.50;;;;;;5066308;28;20358;-46
2022/05/09 08:14:04;;;;;;;11.77;3.92;;;16.70;93.70;;;;;;5067738;28;20089;-47
2022/05/09 08:16:30;;;;;;;12.15;4.20;;;17.00;93.00;;;;;;5064679;28;20489;-45
2022/05/09 08:18:56;;;;;;;11.23;3.90;;;17.20;90.90;;;;;;5068924;28;20560;-45
2022/05/09 08:21:22;;;;;;;13.13;4.03;;;17.40;91.30;;;;;;5060887;28;20029;-46
2022/05/09 08:23:50;;;;;;;10.90;3.75;;;17.80;90.20;;;;;;5065001;28;20040;-45
2022/05/09 08:26:16;;;;;;;13.15;4.03;;;18.30;89.00;;;;;;5068217;28;20025;-45
2022/05/09 08:28:42;;;;;;;14.50;4.57;;;19.10;85.50;;;;;;5069595;28;20020;-46
2022/05/09 08:31:07;;;;;;;11.68;3.72;;;20.30;78.70;;;;;;5064198;28;20017;-47
2022/05/09 08:33:33;;;;;;;10.57;2.95;;;21.60;73.80;;;;;;5062520;28;20485;-45
2022/05/09 08:36:02;;;;;;;8.80;3.65;;;23.70;66.10;;;;;;5065078;28;20028;-45
2022/05/09 08:38:27;;;;;;;6.38;3.20;;;25.50;55.80;;;;;;5069439;28;20100;-45
2022/05/09 08:41:07;;;;;;;11.70;3.92;;;26.30;53.60;;;;;;5067345;28;20171;-48
2022/05/09 08:43:32;;;;;;;12.95;3.38;;;27.90;50.20;;;;;;5060765;28;20029;-48
2022/05/09 08:46:19;;;;;;;10.90;3.60;;;29.30;47.00;;;;;;5070291;28;20523;-46
2022/05/09 08:49:00;;;;;;;8.27;3.60;;;29.50;45.60;;;;;;5070225;28;20024;-45
2022/05/09 08:51:56;;;;;;;12.25;3.17;;;30.50;44.20;;;;;;5071768;28;20033;-46
2022/05/09 08:54:22;;;;;;;6.95;2.60;;;30.80;44.40;;;;;;5062977;28;20032;-46
2022/05/09 08:56:53;;;;;;;8.60;3.05;;;30.70;41.30;;;;;;5069012;28;20078;-46
2022/05/09 08:59:27;;;;;;;6.38;2.95;;;31.30;40.10;;;;;;5064724;28;20024;-44
2022/05/09 09:01:59;;;;;;;11.23;4.15;;;30.90;40.50;;;;;;5068200;28;20047;-47
2022/05/09 09:04:29;;;;;;;7.07;2.90;;;32.00;39.50;;;;;;5067655;28;20040;-45
2022/05/09 09:07:12;;;;;;;9.63;3.08;;;31.80;39.90;;;;;;5067871;28;20020;-47
2022/05/09 09:10:02;;;;;;;7.10;3.05;;;32.60;39.20;;;;;;5060945;28;20024;-48
2022/05/09 09:12:58;;;;;;;11.57;3.40;;;31.90;37.60;;;;;;5069160;28;20099;-48
2022/05/09 09:15:30;;;;;;;7.93;3.10;;;31.90;37.30;;;;;;5060586;28;20013;-47
2022/05/09 09:18:11;;;;;;;8.10;3.00;;;32.90;36.60;;;;;;5062549;28;20108;-47
2022/05/09 09:21:09;;;;;;;7.60;3.13;;;32.90;36.20;;;;;;5062194;28;20024;-45
2022/05/09 09:24:01;;;;;;;12.07;3.05;;;33.90;35.40;;;;;;5072938;28;20036;-45
2022/05/09 09:26:33;;;;;;;8.68;2.88;;;33.10;35.00;;;;;;5076635;28;20067;-45
2022/05/09 09:29:13;;;;;;;5.70;2.58;;;32.90;35.50;;;;;;5069576;28;20067;-45
2022/05/09 09:31:45;;;;;;;12.35;2.75;;;33.70;35.70;;;;;;5071787;28;20470;-46
2022/05/09 09:34:14;;;;;;;6.18;2.90;;;33.50;36.80;;;;;;5086311;28;20032;-45
2022/05/09 09:36:48;;;;;;;9.93;2.73;;;33.80;35.40;;;;;;5069116;28;20043;-45
2022/05/09 09:39:19;;;;;;;7.55;2.70;;;34.30;33.90;;;;;;5081125;28;20752;-46
2022/05/09 09:41:46;;;;;;;4.57;2.60;;;34.60;32.60;;;;;;5061133;28;20122;-38
2022/05/09 09:44:17;;;;;;;8.82;2.92;;;35.20;31.50;;;;;;5076206;28;20028;-38
2022/05/09 09:47:00;;;;;;;5.22;2.80;;;35.50;32.40;;;;;;5075388;28;20021;-38
2022/05/09 09:49:25;;;;;;;6.53;2.97;;;35.20;32.20;;;;;;5088100;28;20028;-39
2022/05/09 09:51:51;;;;;;;10.55;2.95;;;34.70;32.20;;;;;;5069697;28;20369;-39
2022/05/09 09:54:24;;;;;;;7.10;2.90;;;34.30;32.90;;;;;;5074213;28;20017;-38
2022/05/09 09:56:49;;;;;;;10.90;3.00;;;34.20;33.90;;;;;;5073055;28;20504;-38
2022/05/09 09:59:23;;;;;;;8.60;4.18;;;33.70;32.70;;;;;;5071888;28;20127;-39
2022/05/09 10:02:02;;;;;;;5.88;2.58;;;34.20;32.20;;;;;;5071090;28;20062;-39
2022/05/09 10:04:29;;;;;;;4.93;2.13;;;34.20;32.60;;;;;;5080981;28;20539;-39
2022/05/09 10:07:25;;;;;;;8.50;2.55;;;34.50;33.30;;;;;;5070176;28;20041;-39
2022/05/09 10:10:01;;;;;;;5.53;2.42;;;34.80;32.80;;;;;;5073052;28;20040;-38
2022/05/09 10:12:29;;;;;;;6.35;2.67;;;35.30;32.70;;;;;;5064885;28;20025;-38
2022/05/09 10:14:55;;;;;;;5.13;2.92;;;36.40;30.80;;;;;;5080996;28;20054;-38
2022/05/09 10:17:30;;;;;;;8.52;2.42;;;36.70;31.10;;;;;;5087663;28;20324;-38
2022/05/09 10:19:59;;;;;;;6.88;2.75;;;36.10;30.50;;;;;;5071976;28;20070;-38
2022/05/09 10:25:23;;;;;;;5.75;2.65;;;36.10;30.30;;;;;;5071705;28;20527;-38
2022/05/09 10:28:21;;;;;;;6.68;2.70;;;35.70;30.20;;;;;;5070949;28;20103;-38
2022/05/09 10:30:52;;;;;;;5.50;2.80;;;36.20;31.20;;;;;;5079413;28;20040;-38
2022/05/09 10:33:20;;;;;;;9.80;3.35;;;36.50;30.20;;;;;;5067591;28;20044;-38
2022/05/09 10:35:52;;;;;;;5.43;2.28;;;36.70;30.40;;;;;;5066522;28;20032;-38
2022/05/09 10:38:44;;;;;;;7.05;2.97;;;36.40;30.20;;;;;;5075046;28;20148;-38
2022/05/09 10:41:17;;;;;;;6.50;2.50;;;36.60;30.40;;;;;;5074888;28;20044;-38
2022/05/09 10:43:50;;;;;;;7.95;2.47;;;36.60;30.60;;;;;;5075155;28;20035;-38
2022/05/09 10:46:17;;;;;;;7.05;2.45;;;36.40;29.90;;;;;;5070659;28;20024;-38
2022/05/09 10:48:57;;;;;;;5.50;2.85;;;36.00;30.20;;;;;;5064222;28;20024;-38
2022/05/09 10:51:38;;;;;;;6.53;2.50;;;37.00;29.90;;;;;;5073953;28;20055;-38
2022/05/09 10:54:14;;;;;;;6.65;2.78;;;37.00;29.70;;;;;;5083866;28;20020;-38
2022/05/09 10:56:45;;;;;;;5.93;2.38;;;36.60;30.20;;;;;;5072467;28;20120;-38
2022/05/09 10:59:19;;;;;;;7.10;2.50;;;35.00;30.20;;;;;;5065518;28;20024;-39
2022/05/09 11:02:07;;;;;;;5.43;2.55;;;35.40;30.90;;;;;;5074915;28;20410;-38
2022/05/09 11:04:35;;;;;;;6.97;2.45;;;36.60;30.40;;;;;;5079305;28;20020;-38
2022/05/09 11:07:27;;;;;;;6.15;2.58;;;36.00;30.10;;;;;;5068596;28;20096;-38
2022/05/09 11:10:18;;;;;;;5.85;2.38;;;36.40;30.00;;;;;;5069638;28;20033;-39
2022/05/09 11:13:08;;;;;;;6.18;2.33;;;36.00;30.80;;;;;;5066677;28;20076;-38
2022/05/09 11:15:51;;;;;;;6.03;2.38;;;35.80;31.00;;;;;;5080970;28;20024;-38
2022/05/09 11:18:39;;;;;;;5.95;2.53;;;35.90;30.30;;;;;;5066264;28;20480;-38
2022/05/09 11:21:20;;;;;;;3.78;2.50;;;35.80;29.80;;;;;;5084333;28;20393;-38
2022/05/09 11:24:26;;;;;;;4.95;2.53;;;35.70;30.60;;;;;;5081668;28;20043;-38
2022/05/09 11:27:00;;;;;;;7.47;2.75;;;36.10;30.10;;;;;;5080126;28;20082;-39
2022/05/09 11:29:35;;;;;;;3.78;2.55;;;35.80;30.90;;;;;;5067301;28;20539;-38
2022/05/09 11:32:34;;;;;;;6.20;2.78;;;36.10;30.50;;;;;;5074504;28;20374;-38
2022/05/09 11:35:17;;;;;;;12.50;5.28;;;35.60;31.00;;;;;;5071570;28;20024;-38
2022/05/09 11:38:03;;;;;;;8.48;4.25;;;35.90;30.90;;;;;;5074315;28;20024;-39
2022/05/09 11:40:47;;;;;;;10.18;3.30;;;35.60;31.10;;;;;;5079599;28;20041;-38
2022/05/09 11:43:44;;;;;;;6.40;2.63;;;34.80;31.10;;;;;;5071757;28;20528;-38
2022/05/09 11:46:34;;;;;;;5.22;3.10;;;34.70;31.50;;;;;;5077154;28;20032;-38
2022/05/09 11:49:13;;;;;;;8.13;3.17;;;34.60;31.10;;;;;;5088930;28;20020;-38
2022/05/09 11:51:48;;;;;;;10.70;3.00;;;34.00;32.60;;;;;;5077060;28;20370;-38
2022/05/09 11:54:26;;;;;;;5.65;2.67;;;33.50;32.50;;;;;;5081961;28;20419;-38
2022/05/09 11:57:23;;;;;;;9.23;3.53;;;33.80;32.30;;;;;;5076517;28;20064;-38
2022/05/09 11:59:52;;;;;;;11.45;4.80;;;33.80;32.70;;;;;;5057052;28;20040;-38
2022/05/09 12:02:45;;;;;;;7.68;3.25;;;33.20;33.70;;;;;;5059135;28;20079;-38
2022/05/09 12:05:25;;;;;;;7.70;3.53;;;32.70;32.90;;;;;;5082464;28;20668;-38
2022/05/09 12:07:56;;;;;;;9.07;3.42;;;31.70;33.50;;;;;;5073187;28;20020;-38
2022/05/09 12:10:28;;;;;;;5.72;2.83;;;31.40;35.50;;;;;;5091319;28;20111;-44
2022/05/09 12:13:05;;;;;;;7.22;3.63;;;30.70;34.60;;;;;;5072123;28;20031;-44
2022/05/09 12:15:33;;;;;;;10.75;3.03;;;30.10;35.80;;;;;;5084194;28;20071;-46
2022/05/09 12:17:58;;;;;;;11.05;3.92;;;29.70;37.10;;;;;;5084561;28;20024;-45
2022/05/09 12:20:27;;;;;;;10.70;3.50;;;29.70;38.10;;;;;;5093201;28;20690;-44
2022/05/09 12:23:01;;;;;;;7.85;3.25;;;29.30;37.30;;;;;;5082066;28;20107;-45
2022/05/09 12:25:40;;;;;;;7.78;4.32;;;29.30;36.90;;;;;;5075354;28;20103;-44
2022/05/09 12:28:18;;;;;;;8.55;4.28;;;28.80;36.20;;;;;;5081863;28;20070;-44
2022/05/09 12:30:56;;;;;;;12.85;4.30;;;28.50;38.50;;;;;;5065229;28;20526;-37
2022/05/09 12:33:46;;;;;;;10.77;3.60;;;28.40;38.50;;;;;;5062798;28;20024;-37
2022/05/09 12:36:31;;;;;;;11.25;3.65;;;27.90;39.30;;;;;;5068153;28;20020;-37
2022/05/09 12:39:06;;;;;;;5.78;2.70;;;26.90;38.40;;;;;;5058438;28;20033;-37
2022/05/09 12:41:53;;;;;;;16.52;4.18;;;27.20;39.50;;;;;;5076342;28;20042;-37
2022/05/09 12:44:23;;;;;;;7.97;3.42;;;27.50;39.30;;;;;;5069185;28;20025;-37
2022/05/09 12:46:58;;;;;;;8.57;3.30;;;27.40;39.30;;;;;;5084204;28;20103;-37
2022/05/09 12:49:35;;;;;;;9.48;3.67;;;27.40;41.80;;;;;;5092611;28;20020;-37
2022/05/09 12:52:03;;;;;;;8.32;3.15;;;27.50;40.70;;;;;;5075070;28;20036;-37
2022/05/09 12:54:30;;;;;;;13.60;4.00;;;27.60;39.50;;;;;;5069338;28;20024;-37
2022/05/09 12:56:59;;;;;;;10.77;2.97;;;27.60;39.60;;;;;;5077590;28;20468;-38
2022/05/09 12:59:27;;;;;;;7.38;3.38;;;27.70;38.40;;;;;;5063803;28;20032;-38
2022/05/09 13:01:56;;;;;;;5.88;2.80;;;27.60;39.60;;;;;;5074331;28;20032;-39
2022/05/09 13:04:26;;;;;;;9.43;3.25;;;27.30;41.00;;;;;;5080379;28;20047;-36
2022/05/09 13:06:56;;;;;;;14.65;3.67;;;27.30;39.60;;;;;;5067950;28;20029;-36
2022/05/09 13:09:28;;;;;;;11.50;3.20;;;27.20;39.40;;;;;;5078260;28;21089;-38
2022/05/09 13:12:01;;;;;;;9.40;5.57;;;27.20;40.70;;;;;;5080844;28;20042;-38
2022/05/09 13:14:41;;;;;;;6.07;3.22;;;27.30;40.70;;;;;;5080070;28;20028;-38